createdAt,value
2018-05-24T00:02:06.987Z,17.10
2018-05-24T00:04:34.851Z,17.10
2018-05-24T00:07:02.714Z,17.00
2018-05-24T00:09:30.543Z,17.00
2018-05-24T00:11:58.447Z,16.90
2018-05-24T00:14:26.310Z,16.90
2018-05-24T00:16:54.072Z,16.80
2018-05-24T00:19:21.934Z,16.70
2018-05-24T00:21:49.796Z,16.70
2018-05-24T00:24:17.665Z,16.70
2018-05-24T00:26:45.527Z,16.70
2018-05-24T00:29:13.391Z,16.60
2018-05-24T00:31:41.255Z,16.60
2018-05-24T00:34:09.006Z,16.60
2018-05-24T00:36:36.771Z,16.60
2018-05-24T00:39:04.549Z,16.50
2018-05-24T00:41:32.277Z,16.50
2018-05-24T00:44:00.063Z,16.50
2018-05-24T00:46:27.812Z,16.50
2018-05-24T00:48:55.649Z,16.50
2018-05-24T00:51:23.451Z,16.40
2018-05-24T00:53:51.270Z,16.50
2018-05-24T00:56:19.038Z,16.40
2018-05-24T00:58:46.842Z,16.30
2018-05-24T01:01:14.704Z,16.30
2018-05-24T01:03:42.566Z,16.20
2018-05-24T01:06:10.430Z,16.30
2018-05-24T01:08:38.299Z,16.20
2018-05-24T01:11:06.160Z,16.20
2018-05-24T01:13:34.738Z,16.10
2018-05-24T01:16:02.562Z,16.10
2018-05-24T01:18:30.322Z,16.10
2018-05-24T01:20:58.129Z,16.10
2018-05-24T01:23:25.999Z,16.00
2018-05-24T01:25:53.860Z,16.00
2018-05-24T01:28:21.728Z,16.00
2018-05-24T01:30:49.548Z,16.00
2018-05-24T01:33:17.413Z,16.00
2018-05-24T01:35:45.214Z,16.00
2018-05-24T01:38:12.975Z,16.00
2018-05-24T01:40:40.835Z,16.00
2018-05-24T01:43:09.417Z,16.00
2018-05-24T01:45:37.280Z,15.90
2018-05-24T01:48:05.149Z,16.00
2018-05-24T01:50:32.912Z,15.90
2018-05-24T01:53:00.695Z,15.90
2018-05-24T01:55:28.427Z,15.90
2018-05-24T01:57:56.145Z,15.80
2018-05-24T02:00:23.909Z,15.80
2018-05-24T02:02:51.632Z,15.70
2018-05-24T02:05:19.378Z,15.70
2018-05-24T02:07:47.240Z,15.60
2018-05-24T02:10:15.106Z,15.50
2018-05-24T02:12:42.926Z,15.50
2018-05-24T02:15:10.736Z,15.50
2018-05-24T02:17:38.593Z,15.50
2018-05-24T02:20:06.459Z,15.40
2018-05-24T02:22:35.042Z,15.40
2018-05-24T02:25:02.908Z,15.40
2018-05-24T02:27:30.770Z,15.40
2018-05-24T02:29:58.594Z,15.40
2018-05-24T02:32:26.500Z,15.30
2018-05-24T02:34:54.463Z,15.30
2018-05-24T02:37:22.331Z,15.30
2018-05-24T02:39:50.094Z,15.30
2018-05-24T02:42:18.671Z,15.10
2018-05-24T02:44:46.535Z,15.10
2018-05-24T02:47:15.116Z,15.10
2018-05-24T02:49:42.979Z,15.10
2018-05-24T02:52:11.663Z,15.10
2018-05-24T02:54:39.491Z,15.10
2018-05-24T02:57:07.289Z,15.10
2018-05-24T02:59:35.155Z,15.10
2018-05-24T03:02:03.734Z,15.10
2018-05-24T03:04:31.598Z,15.10
2018-05-24T03:07:00.180Z,15.20
2018-05-24T03:09:27.935Z,15.10
2018-05-24T03:11:55.668Z,15.20
2018-05-24T03:14:23.455Z,15.20
2018-05-24T03:16:51.182Z,15.30
2018-05-24T03:19:18.942Z,15.40
2018-05-24T03:21:46.663Z,15.50
2018-05-24T03:24:14.382Z,15.50
2018-05-24T03:26:42.279Z,15.60
2018-05-24T03:29:10.041Z,15.80
2018-05-24T03:31:37.899Z,16.10
2018-05-24T03:34:05.770Z,16.20
2018-05-24T03:36:33.627Z,16.20
2018-05-24T03:39:01.388Z,16.10
2018-05-24T03:41:29.152Z,16.20
2018-05-24T03:43:57.016Z,16.20
2018-05-24T03:46:24.880Z,16.40
2018-05-24T03:48:52.744Z,16.50
2018-05-24T03:51:20.645Z,16.50
2018-05-24T03:53:49.247Z,16.80
2018-05-24T03:56:17.053Z,16.70
2018-05-24T03:58:44.916Z,17.00
2018-05-24T04:01:24.762Z,17.00
2018-05-24T04:03:52.528Z,17.00
2018-05-24T04:06:20.387Z,17.00
2018-05-24T04:08:48.251Z,17.20
2018-05-24T04:11:16.015Z,17.30
2018-05-24T04:13:43.879Z,17.40
2018-05-24T04:16:11.748Z,17.50
2018-05-24T04:18:39.473Z,17.30
2018-05-24T04:21:07.378Z,17.20
2018-05-24T04:23:35.236Z,17.30
2018-05-24T04:26:02.987Z,17.30
2018-05-24T04:28:30.737Z,17.30
2018-05-24T04:30:58.490Z,17.50
2018-05-24T04:33:26.212Z,17.90
2018-05-24T04:35:54.487Z,18.20
2018-05-24T04:38:22.208Z,18.60
2018-05-24T04:40:50.007Z,18.90
2018-05-24T04:43:18.556Z,19.00
2018-05-24T04:45:46.418Z,19.00
2018-05-24T04:48:14.283Z,19.00
2018-05-24T04:50:42.049Z,18.70
2018-05-24T04:53:09.911Z,18.60
2018-05-24T04:55:37.774Z,18.30
2018-05-24T04:58:06.459Z,17.90
2018-05-24T05:00:34.220Z,17.90
2018-05-24T05:03:02.087Z,17.80
2018-05-24T05:05:29.948Z,17.70
2018-05-24T05:07:57.811Z,17.50
2018-05-24T05:10:25.674Z,17.30
2018-05-24T05:12:53.506Z,17.30
2018-05-24T05:15:21.405Z,17.20
2018-05-24T05:17:49.223Z,17.20
2018-05-24T05:20:17.131Z,17.30
2018-05-24T05:22:44.996Z,17.50
2018-05-24T05:25:12.866Z,17.80
2018-05-24T05:27:40.726Z,18.10
2018-05-24T05:30:08.588Z,18.20
2018-05-24T05:32:36.406Z,18.20
2018-05-24T05:35:04.229Z,18.20
2018-05-24T05:37:31.984Z,18.50
2018-05-24T05:39:59.842Z,19.30
2018-05-24T05:42:27.705Z,20.10
2018-05-24T05:44:55.652Z,19.90
2018-05-24T05:47:23.390Z,19.40
2018-05-24T05:49:51.195Z,19.00
2018-05-24T05:52:18.938Z,18.80
2018-05-24T05:54:46.675Z,18.90
2018-05-24T05:57:14.451Z,19.30
2018-05-24T05:59:42.183Z,20.20
2018-05-24T06:02:09.962Z,21.40
2018-05-24T06:04:37.766Z,21.80
2018-05-24T06:07:05.551Z,22.00
2018-05-24T06:09:34.169Z,21.60
2018-05-24T06:12:01.984Z,21.60
2018-05-24T06:14:29.837Z,21.50
2018-05-24T06:16:57.702Z,21.60
2018-05-24T06:19:25.523Z,22.60
2018-05-24T06:21:53.294Z,24.30
2018-05-24T06:24:21.192Z,25.90
2018-05-24T06:26:48.922Z,25.80
2018-05-24T06:29:16.691Z,25.90
2018-05-24T06:31:44.421Z,25.20
2018-05-24T06:34:12.207Z,25.10
2018-05-24T06:36:39.983Z,24.70
2018-05-24T06:39:07.704Z,24.30
2018-05-24T06:41:35.630Z,24.40
2018-05-24T06:44:03.459Z,24.20
2018-05-24T06:46:31.407Z,23.90
2018-05-24T06:48:59.219Z,23.50
2018-05-24T06:51:27.083Z,23.50
2018-05-24T06:53:54.961Z,24.60
2018-05-24T06:56:22.811Z,25.90
2018-05-24T06:58:50.677Z,26.40
2018-05-24T07:01:18.459Z,27.80
2018-05-24T07:03:46.971Z,29.70
2018-05-24T07:06:14.708Z,29.70
2018-05-24T07:08:42.504Z,30.10
2018-05-24T07:11:10.246Z,30.00
2018-05-24T07:13:38.030Z,30.20
2018-05-24T07:16:05.766Z,30.20
2018-05-24T07:18:33.546Z,30.50
2018-05-24T07:21:01.354Z,29.70
2018-05-24T07:23:29.104Z,30.80
2018-05-24T07:25:56.847Z,31.90
2018-05-24T07:28:24.623Z,31.30
2018-05-24T07:30:52.346Z,32.10
2018-05-24T07:33:20.076Z,32.60
2018-05-24T07:35:48.590Z,30.00
2018-05-24T07:38:16.318Z,30.00
2018-05-24T07:40:44.858Z,29.30
2018-05-24T07:43:12.578Z,29.20
2018-05-24T07:45:40.331Z,29.80
2018-05-24T07:48:08.867Z,31.60
2018-05-24T07:50:36.614Z,31.60
2018-05-24T07:53:04.503Z,33.00
2018-05-24T07:55:32.371Z,33.00
2018-05-24T07:58:00.134Z,33.70
2018-05-24T08:00:27.864Z,34.90
2018-05-24T08:02:55.655Z,33.90
2018-05-24T08:05:23.408Z,33.10
2018-05-24T08:07:51.133Z,32.70
2018-05-24T08:10:18.897Z,33.00
2018-05-24T08:12:46.665Z,32.90
2018-05-24T08:15:14.421Z,32.00
2018-05-24T08:17:42.182Z,31.10
2018-05-24T08:20:09.945Z,32.20
2018-05-24T08:22:37.703Z,32.70
2018-05-24T08:25:05.620Z,33.50
2018-05-24T08:27:33.378Z,33.60
2018-05-24T08:30:01.150Z,32.30
2018-05-24T08:32:28.870Z,31.70
2018-05-24T08:34:56.599Z,31.80
2018-05-24T08:37:24.378Z,32.70
2018-05-24T08:39:52.107Z,32.30
2018-05-24T08:42:20.620Z,34.80
2018-05-24T08:44:48.338Z,34.80
2018-05-24T08:47:16.942Z,33.70
2018-05-24T08:49:44.624Z,33.70
2018-05-24T08:52:12.375Z,34.80
2018-05-24T08:54:40.101Z,33.70
2018-05-24T08:57:08.658Z,32.70
2018-05-24T08:59:36.377Z,32.60
2018-05-24T09:02:04.113Z,31.90
2018-05-24T09:04:31.905Z,32.30
2018-05-24T09:06:59.648Z,32.60
2018-05-24T09:09:27.398Z,33.40
2018-05-24T09:11:55.131Z,32.70
2018-05-24T09:14:22.889Z,31.90
2018-05-24T09:16:50.623Z,33.20
2018-05-24T09:19:18.380Z,33.80
2018-05-24T09:21:46.121Z,33.70
2018-05-24T09:24:13.896Z,34.10
2018-05-24T09:26:41.658Z,33.80
2018-05-24T09:29:09.402Z,32.70
2018-05-24T09:31:37.167Z,29.70
2018-05-24T09:34:04.907Z,27.60
2018-05-24T09:36:33.430Z,25.90
2018-05-24T09:39:01.150Z,25.80
2018-05-24T09:41:29.667Z,25.00
2018-05-24T09:43:57.464Z,24.90
2018-05-24T09:46:25.218Z,24.70
2018-05-24T09:48:52.987Z,24.50
2018-05-24T09:51:20.735Z,24.40
2018-05-24T09:53:48.573Z,24.40
2018-05-24T09:56:16.375Z,24.20
2018-05-24T09:58:44.242Z,24.40
2018-05-24T10:01:12.207Z,24.50
2018-05-24T10:03:40.070Z,24.40
2018-05-24T10:06:07.788Z,24.30
2018-05-24T10:08:35.543Z,24.40
2018-05-24T10:11:03.262Z,24.40
2018-05-24T10:13:31.009Z,24.00
2018-05-24T10:15:58.726Z,23.80
2018-05-24T10:18:26.477Z,23.60
2018-05-24T10:20:54.204Z,23.60
2018-05-24T10:23:22.000Z,23.50
2018-05-24T10:25:49.731Z,23.50
2018-05-24T10:28:17.449Z,23.40
2018-05-24T10:30:45.246Z,23.30
2018-05-24T10:33:12.971Z,23.50
2018-05-24T10:35:40.726Z,23.90
2018-05-24T10:38:08.472Z,24.10
2018-05-24T10:40:36.223Z,24.40
2018-05-24T10:43:04.727Z,24.50
2018-05-24T10:45:32.635Z,24.40
2018-05-24T10:48:00.347Z,24.10
2018-05-24T10:50:28.092Z,24.10
2018-05-24T10:52:56.578Z,23.80
2018-05-24T10:55:24.301Z,23.80
2018-05-24T10:57:52.055Z,24.00
2018-05-24T11:00:19.774Z,23.80
2018-05-24T11:02:47.531Z,23.90
2018-05-24T11:05:15.289Z,24.00
2018-05-24T11:07:43.050Z,23.90
2018-05-24T11:10:10.773Z,24.00
2018-05-24T11:12:38.584Z,24.10
2018-05-24T11:15:06.339Z,24.00
2018-05-24T11:17:34.089Z,24.10
2018-05-24T11:20:01.850Z,23.90
2018-05-24T11:22:29.735Z,23.80
2018-05-24T11:24:57.482Z,23.80
2018-05-24T11:27:25.199Z,23.80
2018-05-24T11:29:52.948Z,24.00
2018-05-24T11:32:20.674Z,24.00
2018-05-24T11:34:48.426Z,23.80
2018-05-24T11:37:16.222Z,23.90
2018-05-24T11:39:43.957Z,23.80
2018-05-24T11:42:11.683Z,23.90
2018-05-24T11:44:39.435Z,24.00
2018-05-24T11:47:07.162Z,24.00
2018-05-24T11:49:34.956Z,24.10
2018-05-24T11:52:02.777Z,24.30
2018-05-24T11:54:30.471Z,24.60
2018-05-24T11:56:58.219Z,24.70
2018-05-24T11:59:25.938Z,24.50
2018-05-24T12:01:54.551Z,24.30
2018-05-24T12:04:22.989Z,24.30
2018-05-24T12:06:51.503Z,24.10
2018-05-24T12:09:19.213Z,24.10
2018-05-24T12:11:47.061Z,23.90
2018-05-24T12:14:14.777Z,24.10
2018-05-24T12:16:42.555Z,24.30
2018-05-24T12:19:10.280Z,24.20
2018-05-24T12:21:38.786Z,24.40
2018-05-24T12:24:06.553Z,24.40
2018-05-24T12:26:34.311Z,24.50
2018-05-24T12:29:02.167Z,24.60
2018-05-24T12:31:30.628Z,24.70
2018-05-24T12:33:59.150Z,24.70
2018-05-24T12:36:27.630Z,24.70
2018-05-24T12:38:55.374Z,24.70
2018-05-24T12:41:23.101Z,24.80
2018-05-24T12:43:51.675Z,24.60
2018-05-24T12:46:20.161Z,24.70
2018-05-24T12:48:48.645Z,24.40
2018-05-24T12:51:17.246Z,24.00
2018-05-24T12:53:45.063Z,24.00
2018-05-24T12:56:12.825Z,24.00
2018-05-24T12:58:40.538Z,24.00
2018-05-24T13:01:08.288Z,24.00
2018-05-24T13:03:36.004Z,24.00
2018-05-24T13:06:03.774Z,24.20
2018-05-24T13:08:31.525Z,24.30
2018-05-24T13:10:59.274Z,24.30
2018-05-24T13:13:26.992Z,24.50
2018-05-24T13:15:54.774Z,24.70
2018-05-24T13:18:22.492Z,24.50
2018-05-24T13:20:50.981Z,24.90
2018-05-24T13:23:19.526Z,24.60
2018-05-24T13:25:47.391Z,24.50
2018-05-24T13:28:15.142Z,24.00
2018-05-24T13:30:42.912Z,24.10
2018-05-24T13:33:10.669Z,24.20
2018-05-24T13:35:38.437Z,24.40
2018-05-24T13:38:06.204Z,24.50
2018-05-24T13:40:34.126Z,24.20
2018-05-24T13:43:01.899Z,24.10
2018-05-24T13:45:29.643Z,24.30
2018-05-24T13:47:57.427Z,24.20
2018-05-24T13:50:25.167Z,24.10
2018-05-24T13:52:52.978Z,24.10
2018-05-24T13:55:20.839Z,24.00
2018-05-24T13:57:48.705Z,24.10
2018-05-24T14:00:16.567Z,24.00
2018-05-24T14:02:44.432Z,23.90
2018-05-24T14:05:12.300Z,23.90
2018-05-24T14:07:40.059Z,23.90
2018-05-24T14:10:07.813Z,23.90
2018-05-24T14:12:35.592Z,23.90
2018-05-24T14:15:03.396Z,24.00
2018-05-24T14:17:31.159Z,24.20
2018-05-24T14:19:58.949Z,24.20
2018-05-24T14:22:26.667Z,24.20
2018-05-24T14:24:55.146Z,24.10
2018-05-24T14:27:23.654Z,24.20
2018-05-24T14:29:51.382Z,24.20
2018-05-24T14:32:19.938Z,24.40
2018-05-24T14:34:47.673Z,24.30
2018-05-24T14:37:15.418Z,24.20
2018-05-24T14:39:43.148Z,23.90
2018-05-24T14:42:11.793Z,23.70
2018-05-24T14:44:39.657Z,23.70
2018-05-24T14:47:07.429Z,23.90
2018-05-24T14:49:35.244Z,24.20
2018-05-24T14:52:02.962Z,24.30
2018-05-24T14:54:31.527Z,24.10
2018-05-24T14:56:59.243Z,24.10
2018-05-24T14:59:26.989Z,24.00
2018-05-24T15:01:54.715Z,24.10
2018-05-24T15:04:22.472Z,24.30
2018-05-24T15:06:50.194Z,24.20
2018-05-24T15:09:17.959Z,24.10
2018-05-24T15:11:45.724Z,23.90
2018-05-24T15:14:13.496Z,23.70
2018-05-24T15:16:41.243Z,23.80
2018-05-24T15:19:09.144Z,23.80
2018-05-24T15:21:36.871Z,23.90
2018-05-24T15:24:04.630Z,23.70
2018-05-24T15:26:32.430Z,23.50
2018-05-24T15:29:00.187Z,23.50
2018-05-24T15:31:27.944Z,23.50
2018-05-24T15:33:56.454Z,23.50
2018-05-24T15:36:25.117Z,23.60
2018-05-24T15:38:52.844Z,23.60
2018-05-24T15:41:20.589Z,23.60
2018-05-24T15:43:49.046Z,23.60
2018-05-24T15:46:17.694Z,23.60
2018-05-24T15:48:45.522Z,23.50
2018-05-24T15:51:13.323Z,23.50
2018-05-24T15:53:41.081Z,23.50
2018-05-24T15:56:09.049Z,23.50
2018-05-24T15:58:36.915Z,23.50
2018-05-24T16:01:04.780Z,23.40
2018-05-24T16:03:32.641Z,23.40
2018-05-24T16:06:00.610Z,23.40
2018-05-24T16:08:29.277Z,23.40
2018-05-24T16:10:58.002Z,23.40
2018-05-24T16:13:25.942Z,23.40
2018-05-24T16:15:53.669Z,23.30
2018-05-24T16:18:21.459Z,23.30
2018-05-24T16:20:49.240Z,23.30
2018-05-24T16:23:17.051Z,23.40
2018-05-24T16:25:44.801Z,23.40
2018-05-24T16:28:12.824Z,23.30
2018-05-24T16:30:41.432Z,23.20
2018-05-24T16:33:09.477Z,23.30
2018-05-24T16:38:17.007Z,23.10
2018-05-24T16:40:45.775Z,23.00
2018-05-24T16:43:15.675Z,23.00
2018-05-24T16:45:43.433Z,23.00
2018-05-24T16:48:12.591Z,22.90
2018-05-24T16:50:40.382Z,22.90
2018-05-24T16:53:09.425Z,22.90
2018-05-24T16:55:39.922Z,22.90
2018-05-24T16:58:07.926Z,22.80
2018-05-24T17:00:35.778Z,22.80
2018-05-24T17:03:04.312Z,22.70
2018-05-24T17:05:32.044Z,22.60
2018-05-24T17:08:00.035Z,22.60
2018-05-24T17:10:30.780Z,22.60
2018-05-24T17:12:58.642Z,22.50
2018-05-24T17:15:26.419Z,22.40
2018-05-24T17:17:54.167Z,22.30
2018-05-24T17:20:21.907Z,22.30
2018-05-24T17:22:49.670Z,22.20
2018-05-24T17:25:17.392Z,22.20
2018-05-24T17:27:45.213Z,22.20
2018-05-24T17:30:12.965Z,22.10
2018-05-24T17:32:40.691Z,22.10
2018-05-24T17:35:08.462Z,22.00
2018-05-24T17:37:36.178Z,22.00
2018-05-24T17:40:03.950Z,22.00
2018-05-24T17:42:31.745Z,21.90
2018-05-24T17:44:59.487Z,21.90
2018-05-24T17:47:27.207Z,21.80
2018-05-24T17:49:54.972Z,21.80
2018-05-24T17:52:22.702Z,21.80
2018-05-24T17:54:50.474Z,21.70
2018-05-24T17:57:18.202Z,21.70
2018-05-24T17:59:45.954Z,21.70
2018-05-24T18:02:13.703Z,21.60
2018-05-24T18:04:42.214Z,21.50
2018-05-24T18:07:10.018Z,21.50
2018-05-24T18:09:37.776Z,21.50
2018-05-24T19:48:10.621Z,19.70
2018-05-24T19:50:38.394Z,19.70
2018-05-24T19:53:06.323Z,19.60
2018-05-24T19:55:35.851Z,19.50
2018-05-24T19:58:04.550Z,19.40
2018-05-24T20:00:33.080Z,19.40
2018-05-24T20:03:00.884Z,19.40
2018-05-24T20:05:28.655Z,19.40
2018-05-24T20:08:00.225Z,19.40
2018-05-24T20:10:28.046Z,19.30
2018-05-24T20:12:56.756Z,19.30
2018-05-24T20:15:24.764Z,19.30
2018-05-24T20:17:52.528Z,19.20
2018-05-24T20:20:20.296Z,19.20
2018-05-24T20:22:48.161Z,19.10
2018-05-24T20:25:15.977Z,19.00
2018-05-24T20:31:04.411Z,19.00
2018-05-24T20:33:32.979Z,18.90
2018-05-24T20:36:01.544Z,18.80
2018-05-24T20:38:30.044Z,18.80
2018-05-24T20:40:59.998Z,18.80
2018-05-24T20:46:49.619Z,18.80
2018-05-24T20:49:17.346Z,18.70
2018-05-24T20:57:58.976Z,18.60
2018-05-24T21:00:26.754Z,18.60
2018-05-24T21:02:55.533Z,18.60
2018-05-24T21:05:23.287Z,18.60
2018-05-24T21:27:51.477Z,18.40
2018-05-24T21:30:20.246Z,18.40
2018-05-24T21:32:47.964Z,18.30
2018-05-24T21:35:15.781Z,18.20
2018-05-24T21:37:43.543Z,18.20
2018-05-24T21:40:11.262Z,18.20
2018-05-24T21:42:39.024Z,18.20
2018-05-24T21:48:28.853Z,18.10
2018-05-24T21:54:18.098Z,18.10
2018-05-24T22:03:22.137Z,18.00
2018-05-24T22:05:49.873Z,17.90
2018-05-24T22:08:17.704Z,17.90
2018-05-24T22:14:06.514Z,17.80
